Anderson, Texas
Current Conditions -  °F | °C
As of 3:53 PM on Sunday 23 Nov 2014 (Local Time) from KCLL Reporting Station
Clear Clear  
Wind Chill: 78°   Ceiling: Unl
Heat Index: 78°   Visibility: 10mi
Dew Point: 47°   Wind: 18mph
Humidity: 33%   Direction: 240°WSW
Pressure: 29.5"   Gusts: 24mph
Location:  30.49°N, 95.99°W
Report Text: KCLL 232153Z 24016G21KT 10SM CLR 26/08 A2950 RMK AO2 SLP984 T02560083 $
Loading
Personal Weather Stations






























Interactive Weather Map New forecast layout! Learn more

10-Day Weather Forecast

Advertisements
Track Severe Weather on mobile